sensor_id;sensor_type;location;lat;lon;timestamp;temperature;humidity
2767;DHT22;1391;46.74287300;11.63683300;2024-03-08T00:00:18;3.70;94.60
2767;DHT22;1391;46.74287300;11.63683300;2024-03-08T00:02:47;3.80;95.10
2767;DHT22;1391;46.74287300;11.63683300;2024-03-08T00:05:16;3.90;96.10
2767;DHT22;1391;46.74287300;11.63683300;2024-03-08T00:07:44;3.70;98.30
2767;DHT22;1391;46.74287300;11.63683300;2024-03-08T00:10:13;3.50;99.20
2767;DHT22;1391;46.74287300;11.63683300;2024-03-08T00:12:41;3.70;97.60
2767;DHT22;1391;46.74287300;11.63683300;2024-03-08T00:15:11;3.60;96.30
2767;DHT22;1391;46.74287300;11.63683300;2024-03-08T00:17:41;3.70;96.80
2767;DHT22;1391;46.74287300;11.63683300;2024-03-08T00:20:09;3.70;98.30
2767;DHT22;1391;46.74287300;11.63683300;2024-03-08T00:22:39;3.80;99.90
2767;DHT22;1391;46.74287300;11.63683300;2024-03-08T00:25:07;3.70;99.90
2767;DHT22;1391;46.74287300;11.63683300;2024-03-08T00:27:35;3.40;98.20
2767;DHT22;1391;46.74287300;11.63683300;2024-03-08T00:30:04;3.80;96.80
2767;DHT22;1391;46.74287300;11.63683300;2024-03-08T00:32:33;3.90;96.60
2767;DHT22;1391;46.74287300;11.63683300;2024-03-08T00:35:01;3.40;98.10
2767;DHT22;1391;46.74287300;11.63683300;2024-03-08T00:37:29;3.80;96.50
2767;DHT22;1391;46.74287300;11.63683300;2024-03-08T00:39:56;3.80;94.20
2767;DHT22;1391;46.74287300;11.63683300;2024-03-08T00:42:23;3.80;91.50
2767;DHT22;1391;46.74287300;11.63683300;2024-03-08T00:44:51;3.80;88.80
2767;DHT22;1391;46.74287300;11.63683300;2024-03-08T00:47:18;3.60;84.80
2767;DHT22;1391;46.74287300;11.63683300;2024-03-08T00:49:46;3.70;81.60
2767;DHT22;1391;46.74287300;11.63683300;2024-03-08T00:52:14;3.80;86.00
2767;DHT22;1391;46.74287300;11.63683300;2024-03-08T00:54:41;3.70;90.30
2767;DHT22;1391;46.74287300;11.63683300;2024-03-08T00:57:08;3.50;88.40
2767;DHT22;1391;46.74287300;11.63683300;2024-03-08T00:59:37;3.60;85.70
2767;DHT22;1391;46.74287300;11.63683300;2024-03-08T01:02:05;3.40;85.40
2767;DHT22;1391;46.74287300;11.63683300;2024-03-08T01:04:32;3.60;84.30
2767;DHT22;1391;46.74287300;11.63683300;2024-03-08T01:07:01;3.80;83.20
2767;DHT22;1391;46.74287300;11.63683300;2024-03-08T01:09:28;3.40;80.40
2767;DHT22;1391;46.74287300;11.63683300;2024-03-08T01:11:56;3.50;78.90
2767;DHT22;1391;46.74287300;11.63683300;2024-03-08T01:14:23;3.50;81.90
2767;DHT22;1391;46.74287300;11.63683300;2024-03-08T01:16:52;3.40;83.20
2767;DHT22;1391;46.74287300;11.63683300;2024-03-08T01:19:20;3.20;82.40
2767;DHT22;1391;46.74287300;11.63683300;2024-03-08T01:21:47;2.80;90.60
2767;DHT22;1391;46.74287300;11.63683300;2024-03-08T01:24:16;2.80;94.20
2767;DHT22;1391;46.74287300;11.63683300;2024-03-08T01:26:43;3.00;96.50
2767;DHT22;1391;46.74287300;11.63683300;2024-03-08T01:29:11;3.20;96.70
2767;DHT22;1391;46.74287300;11.63683300;2024-03-08T01:31:38;3.20;96.50
2767;DHT22;1391;46.74287300;11.63683300;2024-03-08T01:34:05;3.10;96.30
2767;DHT22;1391;46.74287300;11.63683300;2024-03-08T01:36:34;3.10;94.60
2767;DHT22;1391;46.74287300;11.63683300;2024-03-08T01:39:03;3.20;92.80
2767;DHT22;1391;46.74287300;11.63683300;2024-03-08T01:41:34;3.50;90.10
2767;DHT22;1391;46.74287300;11.63683300;2024-03-08T01:44:02;3.40;81.60
2767;DHT22;1391;46.74287300;11.63683300;2024-03-08T01:46:30;3.10;85.60
2767;DHT22;1391;46.74287300;11.63683300;2024-03-08T01:48:58;3.30;88.20
2767;DHT22;1391;46.74287300;11.63683300;2024-03-08T01:51:27;3.40;86.70
2767;DHT22;1391;46.74287300;11.63683300;2024-03-08T01:53:56;3.10;86.70
2767;DHT22;1391;46.74287300;11.63683300;2024-03-08T01:56:24;3.20;84.00
2767;DHT22;1391;46.74287300;11.63683300;2024-03-08T01:58:54;3.10;80.90
2767;DHT22;1391;46.74287300;11.63683300;2024-03-08T02:01:21;3.30;79.60
2767;DHT22;1391;46.74287300;11.63683300;2024-03-08T02:03:49;3.30;79.10
2767;DHT22;1391;46.74287300;11.63683300;2024-03-08T02:06:17;3.40;80.40
2767;DHT22;1391;46.74287300;11.63683300;2024-03-08T02:08:44;3.30;77.90
2767;DHT22;1391;46.74287300;11.63683300;2024-03-08T02:11:12;3.40;80.00
2767;DHT22;1391;46.74287300;11.63683300;2024-03-08T02:13:39;3.40;84.50
2767;DHT22;1391;46.74287300;11.63683300;2024-03-08T02:16:08;3.50;85.50
2767;DHT22;1391;46.74287300;11.63683300;2024-03-08T02:18:36;3.10;84.70
2767;DHT22;1391;46.74287300;11.63683300;2024-03-08T02:21:07;3.10;81.70
2767;DHT22;1391;46.74287300;11.63683300;2024-03-08T02:23:35;3.30;79.80
2767;DHT22;1391;46.74287300;11.63683300;2024-03-08T02:26:03;3.50;74.70
2767;DHT22;1391;46.74287300;11.63683300;2024-03-08T02:28:31;3.50;79.00
2767;DHT22;1391;46.74287300;11.63683300;2024-03-08T02:30:58;3.70;79.40
2767;DHT22;1391;46.74287300;11.63683300;2024-03-08T02:33:27;3.10;81.40
2767;DHT22;1391;46.74287300;11.63683300;2024-03-08T02:35:55;3.40;83.30
2767;DHT22;1391;46.74287300;11.63683300;2024-03-08T02:38:23;3.10;84.40
2767;DHT22;1391;46.74287300;11.63683300;2024-03-08T02:40:52;3.10;83.40
2767;DHT22;1391;46.74287300;11.63683300;2024-03-08T02:43:21;3.50;86.50
2767;DHT22;1391;46.74287300;11.63683300;2024-03-08T02:45:50;3.70;87.10
2767;DHT22;1391;46.74287300;11.63683300;2024-03-08T02:48:18;3.30;90.00
2767;DHT22;1391;46.74287300;11.63683300;2024-03-08T02:50:47;3.30;90.70
2767;DHT22;1391;46.74287300;11.63683300;2024-03-08T02:53:16;3.30;90.30
2767;DHT22;1391;46.74287300;11.63683300;2024-03-08T02:55:46;3.40;90.40
2767;DHT22;1391;46.74287300;11.63683300;2024-03-08T02:58:13;3.50;90.50
2767;DHT22;1391;46.74287300;11.63683300;2024-03-08T03:00:41;3.30;88.80
2767;DHT22;1391;46.74287300;11.63683300;2024-03-08T03:03:10;3.40;83.10
2767;DHT22;1391;46.74287300;11.63683300;2024-03-08T03:05:37;3.40;79.70
2767;DHT22;1391;46.74287300;11.63683300;2024-03-08T03:08:07;3.30;75.60
2767;DHT22;1391;46.74287300;11.63683300;2024-03-08T03:10:34;3.40;73.40
2767;DHT22;1391;46.74287300;11.63683300;2024-03-08T03:13:04;3.10;74.20
2767;DHT22;1391;46.74287300;11.63683300;2024-03-08T03:15:32;3.30;75.40
2767;DHT22;1391;46.74287300;11.63683300;2024-03-08T03:18:00;3.40;78.90
2767;DHT22;1391;46.74287300;11.63683300;2024-03-08T03:20:27;3.10;87.10
2767;DHT22;1391;46.74287300;11.63683300;2024-03-08T03:22:58;3.00;88.30
2767;DHT22;1391;46.74287300;11.63683300;2024-03-08T03:25:27;3.40;90.30
2767;DHT22;1391;46.74287300;11.63683300;2024-03-08T03:27:59;2.80;90.30
2767;DHT22;1391;46.74287300;11.63683300;2024-03-08T03:30:28;2.80;91.90
2767;DHT22;1391;46.74287300;11.63683300;2024-03-08T03:32:59;3.30;92.40
2767;DHT22;1391;46.74287300;11.63683300;2024-03-08T03:35:27;3.20;90.90
2767;DHT22;1391;46.74287300;11.63683300;2024-03-08T03:37:54;3.00;89.30
2767;DHT22;1391;46.74287300;11.63683300;2024-03-08T03:40:33;3.20;88.50
2767;DHT22;1391;46.74287300;11.63683300;2024-03-08T03:43:00;3.10;87.10
2767;DHT22;1391;46.74287300;11.63683300;2024-03-08T03:45:30;3.30;86.90
2767;DHT22;1391;46.74287300;11.63683300;2024-03-08T03:48:01;3.50;84.60
2767;DHT22;1391;46.74287300;11.63683300;2024-03-08T03:50:29;3.40;82.40
2767;DHT22;1391;46.74287300;11.63683300;2024-03-08T03:52:56;3.50;85.60
2767;DHT22;1391;46.74287300;11.63683300;2024-03-08T03:55:24;3.40;86.50
2767;DHT22;1391;46.74287300;11.63683300;2024-03-08T03:57:51;3.10;84.00
2767;DHT22;1391;46.74287300;11.63683300;2024-03-08T04:00:18;3.40;91.70
2767;DHT22;1391;46.74287300;11.63683300;2024-03-08T04:02:47;3.50;92.60
2767;DHT22;1391;46.74287300;11.63683300;2024-03-08T04:05:15;3.40;91.40
2767;DHT22;1391;46.74287300;11.63683300;2024-03-08T04:07:42;3.40;90.30
2767;DHT22;1391;46.74287300;11.63683300;2024-03-08T04:10:12;3.50;88.00
2767;DHT22;1391;46.74287300;11.63683300;2024-03-08T04:12:40;3.50;82.20
2767;DHT22;1391;46.74287300;11.63683300;2024-03-08T04:15:08;3.40;72.90
2767;DHT22;1391;46.74287300;11.63683300;2024-03-08T04:17:36;3.30;74.70
2767;DHT22;1391;46.74287300;11.63683300;2024-03-08T04:20:06;3.50;75.90
2767;DHT22;1391;46.74287300;11.63683300;2024-03-08T04:22:35;3.30;70.50
2767;DHT22;1391;46.74287300;11.63683300;2024-03-08T04:25:03;3.10;69.00
2767;DHT22;1391;46.74287300;11.63683300;2024-03-08T04:27:32;3.10;67.80
2767;DHT22;1391;46.74287300;11.63683300;2024-03-08T04:30:00;3.10;69.50
2767;DHT22;1391;46.74287300;11.63683300;2024-03-08T04:32:27;3.50;68.90
2767;DHT22;1391;46.74287300;11.63683300;2024-03-08T04:34:55;3.40;64.10
2767;DHT22;1391;46.74287300;11.63683300;2024-03-08T04:37:24;3.20;66.40
2767;DHT22;1391;46.74287300;11.63683300;2024-03-08T04:39:51;3.50;78.50
2767;DHT22;1391;46.74287300;11.63683300;2024-03-08T04:42:18;3.70;89.20
2767;DHT22;1391;46.74287300;11.63683300;2024-03-08T04:44:46;3.70;91.50
2767;DHT22;1391;46.74287300;11.63683300;2024-03-08T04:47:13;3.20;91.10
2767;DHT22;1391;46.74287300;11.63683300;2024-03-08T04:49:41;3.50;88.10
2767;DHT22;1391;46.74287300;11.63683300;2024-03-08T04:52:09;3.60;85.70
2767;DHT22;1391;46.74287300;11.63683300;2024-03-08T04:54:37;3.50;84.00
2767;DHT22;1391;46.74287300;11.63683300;2024-03-08T04:57:05;3.70;80.80
2767;DHT22;1391;46.74287300;11.63683300;2024-03-08T04:59:33;3.60;85.40
2767;DHT22;1391;46.74287300;11.63683300;2024-03-08T05:02:01;3.50;91.90
2767;DHT22;1391;46.74287300;11.63683300;2024-03-08T05:04:29;3.40;94.80
2767;DHT22;1391;46.74287300;11.63683300;2024-03-08T05:06:56;3.70;93.40
2767;DHT22;1391;46.74287300;11.63683300;2024-03-08T05:09:26;3.60;91.50
2767;DHT22;1391;46.74287300;11.63683300;2024-03-08T05:11:58;3.70;91.90
2767;DHT22;1391;46.74287300;11.63683300;2024-03-08T05:14:26;3.70;92.60
2767;DHT22;1391;46.74287300;11.63683300;2024-03-08T05:16:53;3.60;91.90
2767;DHT22;1391;46.74287300;11.63683300;2024-03-08T05:19:21;3.10;90.10
2767;DHT22;1391;46.74287300;11.63683300;2024-03-08T05:21:49;3.20;87.40
2767;DHT22;1391;46.74287300;11.63683300;2024-03-08T05:24:17;3.50;85.70
2767;DHT22;1391;46.74287300;11.63683300;2024-03-08T05:26:45;3.10;84.50
2767;DHT22;1391;46.74287300;11.63683300;2024-03-08T05:29:14;3.70;84.10
2767;DHT22;1391;46.74287300;11.63683300;2024-03-08T05:31:46;3.70;82.40
2767;DHT22;1391;46.74287300;11.63683300;2024-03-08T05:34:15;3.70;84.30
2767;DHT22;1391;46.74287300;11.63683300;2024-03-08T05:36:45;3.70;85.10
2767;DHT22;1391;46.74287300;11.63683300;2024-03-08T05:39:12;3.50;85.10
2767;DHT22;1391;46.74287300;11.63683300;2024-03-08T05:41:39;3.60;83.90
2767;DHT22;1391;46.74287300;11.63683300;2024-03-08T05:44:07;3.70;84.10
2767;DHT22;1391;46.74287300;11.63683300;2024-03-08T05:46:36;3.70;84.70
2767;DHT22;1391;46.74287300;11.63683300;2024-03-08T05:49:04;3.40;85.10
2767;DHT22;1391;46.74287300;11.63683300;2024-03-08T05:51:31;3.70;90.20
2767;DHT22;1391;46.74287300;11.63683300;2024-03-08T05:54:00;3.70;92.60
2767;DHT22;1391;46.74287300;11.63683300;2024-03-08T05:56:29;3.60;94.60
2767;DHT22;1391;46.74287300;11.63683300;2024-03-08T05:58:56;3.70;95.50
2767;DHT22;1391;46.74287300;11.63683300;2024-03-08T06:01:24;3.40;97.10
2767;DHT22;1391;46.74287300;11.63683300;2024-03-08T06:03:53;3.70;98.70
2767;DHT22;1391;46.74287300;11.63683300;2024-03-08T06:06:22;3.60;99.90
2767;DHT22;1391;46.74287300;11.63683300;2024-03-08T06:08:50;3.70;99.90
2767;DHT22;1391;46.74287300;11.63683300;2024-03-08T06:11:19;3.50;99.90
2767;DHT22;1391;46.74287300;11.63683300;2024-03-08T06:13:47;3.60;99.90
2767;DHT22;1391;46.74287300;11.63683300;2024-03-08T06:16:15;3.60;99.90
2767;DHT22;1391;46.74287300;11.63683300;2024-03-08T06:18:43;3.60;99.90
2767;DHT22;1391;46.74287300;11.63683300;2024-03-08T06:21:13;3.90;99.90
2767;DHT22;1391;46.74287300;11.63683300;2024-03-08T06:23:42;3.50;99.90
2767;DHT22;1391;46.74287300;11.63683300;2024-03-08T06:26:09;3.50;99.90
2767;DHT22;1391;46.74287300;11.63683300;2024-03-08T06:28:36;3.60;99.90
2767;DHT22;1391;46.74287300;11.63683300;2024-03-08T06:31:04;3.70;99.90
2767;DHT22;1391;46.74287300;11.63683300;2024-03-08T06:33:32;3.90;99.90
2767;DHT22;1391;46.74287300;11.63683300;2024-03-08T06:36:01;3.50;99.90
2767;DHT22;1391;46.74287300;11.63683300;2024-03-08T06:38:29;3.70;99.90
2767;DHT22;1391;46.74287300;11.63683300;2024-03-08T06:40:57;3.40;97.50
2767;DHT22;1391;46.74287300;11.63683300;2024-03-08T06:43:24;3.50;97.90
2767;DHT22;1391;46.74287300;11.63683300;2024-03-08T06:45:58;3.40;97.60
2767;DHT22;1391;46.74287300;11.63683300;2024-03-08T06:48:25;3.70;95.90
2767;DHT22;1391;46.74287300;11.63683300;2024-03-08T06:50:53;4.00;94.30
2767;DHT22;1391;46.74287300;11.63683300;2024-03-08T06:53:20;3.50;93.50
2767;DHT22;1391;46.74287300;11.63683300;2024-03-08T06:55:49;3.40;91.00
2767;DHT22;1391;46.74287300;11.63683300;2024-03-08T06:58:17;3.80;82.60
2767;DHT22;1391;46.74287300;11.63683300;2024-03-08T07:00:44;3.90;77.80
2767;DHT22;1391;46.74287300;11.63683300;2024-03-08T07:03:12;4.00;76.80
2767;DHT22;1391;46.74287300;11.63683300;2024-03-08T07:05:42;3.80;72.50
2767;DHT22;1391;46.74287300;11.63683300;2024-03-08T07:08:10;4.00;68.40
2767;DHT22;1391;46.74287300;11.63683300;2024-03-08T07:10:38;4.00;68.10
2767;DHT22;1391;46.74287300;11.63683300;2024-03-08T07:13:08;4.00;69.60
2767;DHT22;1391;46.74287300;11.63683300;2024-03-08T07:15:36;4.00;67.30
2767;DHT22;1391;46.74287300;11.63683300;2024-03-08T07:18:04;4.00;65.80
2767;DHT22;1391;46.74287300;11.63683300;2024-03-08T07:20:34;4.10;63.90
2767;DHT22;1391;46.74287300;11.63683300;2024-03-08T07:23:03;4.00;60.80
2767;DHT22;1391;46.74287300;11.63683300;2024-03-08T07:25:30;3.80;56.60
2767;DHT22;1391;46.74287300;11.63683300;2024-03-08T07:27:57;4.10;57.80
2767;DHT22;1391;46.74287300;11.63683300;2024-03-08T07:30:27;4.20;59.50
2767;DHT22;1391;46.74287300;11.63683300;2024-03-08T07:33:12;4.40;58.50
2767;DHT22;1391;46.74287300;11.63683300;2024-03-08T07:35:40;4.50;55.50
2767;DHT22;1391;46.74287300;11.63683300;2024-03-08T07:38:08;4.40;56.40
2767;DHT22;1391;46.74287300;11.63683300;2024-03-08T07:40:37;4.30;55.70
2767;DHT22;1391;46.74287300;11.63683300;2024-03-08T07:43:06;4.70;57.70
2767;DHT22;1391;46.74287300;11.63683300;2024-03-08T07:45:35;4.80;53.40
2767;DHT22;1391;46.74287300;11.63683300;2024-03-08T07:48:03;4.80;50.20
2767;DHT22;1391;46.74287300;11.63683300;2024-03-08T07:50:36;4.70;44.60
2767;DHT22;1391;46.74287300;11.63683300;2024-03-08T07:53:03;4.50;42.30
2767;DHT22;1391;46.74287300;11.63683300;2024-03-08T07:55:32;4.60;43.20
2767;DHT22;1391;46.74287300;11.63683300;2024-03-08T07:58:04;4.60;45.30
2767;DHT22;1391;46.74287300;11.63683300;2024-03-08T08:00:32;4.70;41.20
2767;DHT22;1391;46.74287300;11.63683300;2024-03-08T08:03:00;4.70;41.70
2767;DHT22;1391;46.74287300;11.63683300;2024-03-08T08:05:28;4.70;45.30
2767;DHT22;1391;46.74287300;11.63683300;2024-03-08T08:07:55;5.20;48.70
2767;DHT22;1391;46.74287300;11.63683300;2024-03-08T08:10:23;4.70;43.80
2767;DHT22;1391;46.74287300;11.63683300;2024-03-08T08:12:50;5.10;41.10
2767;DHT22;1391;46.74287300;11.63683300;2024-03-08T08:15:18;4.50;44.60
2767;DHT22;1391;46.74287300;11.63683300;2024-03-08T08:17:45;4.90;46.30
2767;DHT22;1391;46.74287300;11.63683300;2024-03-08T08:20:14;4.80;49.30
2767;DHT22;1391;46.74287300;11.63683300;2024-03-08T08:22:44;5.00;51.80
2767;DHT22;1391;46.74287300;11.63683300;2024-03-08T08:25:13;4.50;49.60
2767;DHT22;1391;46.74287300;11.63683300;2024-03-08T08:27:41;4.70;55.30
2767;DHT22;1391;46.74287300;11.63683300;2024-03-08T08:30:10;4.70;65.10
2767;DHT22;1391;46.74287300;11.63683300;2024-03-08T08:32:38;4.60;67.80
2767;DHT22;1391;46.74287300;11.63683300;2024-03-08T08:35:06;4.70;70.30
2767;DHT22;1391;46.74287300;11.63683300;2024-03-08T08:37:40;4.80;71.60
2767;DHT22;1391;46.74287300;11.63683300;2024-03-08T08:40:07;4.70;75.70
2767;DHT22;1391;46.74287300;11.63683300;2024-03-08T08:42:40;4.30;79.50
2767;DHT22;1391;46.74287300;11.63683300;2024-03-08T08:45:09;4.40;81.30
2767;DHT22;1391;46.74287300;11.63683300;2024-03-08T08:47:36;4.40;77.70
2767;DHT22;1391;46.74287300;11.63683300;2024-03-08T08:50:04;4.30;75.50
2767;DHT22;1391;46.74287300;11.63683300;2024-03-08T08:52:33;4.80;74.90
2767;DHT22;1391;46.74287300;11.63683300;2024-03-08T08:55:02;4.70;79.70
2767;DHT22;1391;46.74287300;11.63683300;2024-03-08T08:57:30;4.20;79.80
2767;DHT22;1391;46.74287300;11.63683300;2024-03-08T08:59:58;4.40;81.00
2767;DHT22;1391;46.74287300;11.63683300;2024-03-08T09:02:51;4.70;84.40
2767;DHT22;1391;46.74287300;11.63683300;2024-03-08T09:05:20;4.30;88.20
2767;DHT22;1391;46.74287300;11.63683300;2024-03-08T09:07:50;4.80;92.40
2767;DHT22;1391;46.74287300;11.63683300;2024-03-08T09:10:20;4.40;93.00
2767;DHT22;1391;46.74287300;11.63683300;2024-03-08T09:12:47;4.80;94.40
2767;DHT22;1391;46.74287300;11.63683300;2024-03-08T09:15:14;4.20;94.90
2767;DHT22;1391;46.74287300;11.63683300;2024-03-08T09:17:43;4.30;96.00
2767;DHT22;1391;46.74287300;11.63683300;2024-03-08T09:20:11;4.40;97.80
2767;DHT22;1391;46.74287300;11.63683300;2024-03-08T09:22:40;4.30;98.70
2767;DHT22;1391;46.74287300;11.63683300;2024-03-08T09:25:10;4.40;99.90
2767;DHT22;1391;46.74287300;11.63683300;2024-03-08T09:27:38;4.40;99.90
2767;DHT22;1391;46.74287300;11.63683300;2024-03-08T09:30:07;4.40;99.90
2767;DHT22;1391;46.74287300;11.63683300;2024-03-08T09:32:35;4.40;99.90
2767;DHT22;1391;46.74287300;11.63683300;2024-03-08T09:35:03;4.40;99.90
2767;DHT22;1391;46.74287300;11.63683300;2024-03-08T09:37:32;4.70;99.90
2767;DHT22;1391;46.74287300;11.63683300;2024-03-08T09:40:00;4.30;99.90
2767;DHT22;1391;46.74287300;11.63683300;2024-03-08T09:42:30;4.40;99.90
2767;DHT22;1391;46.74287300;11.63683300;2024-03-08T09:44:59;4.40;99.90
2767;DHT22;1391;46.74287300;11.63683300;2024-03-08T09:47:28;4.40;99.90
2767;DHT22;1391;46.74287300;11.63683300;2024-03-08T09:49:59;4.40;99.90
2767;DHT22;1391;46.74287300;11.63683300;2024-03-08T09:52:27;4.40;99.90
2767;DHT22;1391;46.74287300;11.63683300;2024-03-08T09:54:56;4.40;99.90
2767;DHT22;1391;46.74287300;11.63683300;2024-03-08T09:57:24;4.40;99.90
2767;DHT22;1391;46.74287300;11.63683300;2024-03-08T09:59:52;4.40;99.90
2767;DHT22;1391;46.74287300;11.63683300;2024-03-08T10:02:20;4.40;99.90
2767;DHT22;1391;46.74287300;11.63683300;2024-03-08T10:04:47;4.30;99.90
2767;DHT22;1391;46.74287300;11.63683300;2024-03-08T10:07:15;4.40;99.90
2767;DHT22;1391;46.74287300;11.63683300;2024-03-08T10:09:42;4.40;99.90
2767;DHT22;1391;46.74287300;11.63683300;2024-03-08T10:12:16;4.30;99.90
2767;DHT22;1391;46.74287300;11.63683300;2024-03-08T10:14:45;4.30;99.90
2767;DHT22;1391;46.74287300;11.63683300;2024-03-08T10:17:13;4.40;99.90
2767;DHT22;1391;46.74287300;11.63683300;2024-03-08T10:19:49;4.30;99.90
2767;DHT22;1391;46.74287300;11.63683300;2024-03-08T10:22:18;4.40;99.90
2767;DHT22;1391;46.74287300;11.63683300;2024-03-08T10:24:46;4.30;99.90
2767;DHT22;1391;46.74287300;11.63683300;2024-03-08T10:27:13;4.10;99.90
2767;DHT22;1391;46.74287300;11.63683300;2024-03-08T10:29:42;4.10;99.90
2767;DHT22;1391;46.74287300;11.63683300;2024-03-08T10:32:11;4.40;99.90
2767;DHT22;1391;46.74287300;11.63683300;2024-03-08T10:34:38;4.30;99.90
2767;DHT22;1391;46.74287300;11.63683300;2024-03-08T10:37:15;4.30;99.90
2767;DHT22;1391;46.74287300;11.63683300;2024-03-08T10:39:58;4.40;99.90
2767;DHT22;1391;46.74287300;11.63683300;2024-03-08T10:42:40;4.40;99.90
2767;DHT22;1391;46.74287300;11.63683300;2024-03-08T10:45:15;4.30;99.90
2767;DHT22;1391;46.74287300;11.63683300;2024-03-08T10:47:55;4.40;99.90
2767;DHT22;1391;46.74287300;11.63683300;2024-03-08T10:50:33;4.40;99.90
2767;DHT22;1391;46.74287300;11.63683300;2024-03-08T10:53:03;4.40;99.90
2767;DHT22;1391;46.74287300;11.63683300;2024-03-08T10:55:33;4.40;99.90
2767;DHT22;1391;46.74287300;11.63683300;2024-03-08T10:58:04;4.40;99.90
2767;DHT22;1391;46.74287300;11.63683300;2024-03-08T11:00:32;4.40;99.90
2767;DHT22;1391;46.74287300;11.63683300;2024-03-08T11:02:59;4.40;99.90
2767;DHT22;1391;46.74287300;11.63683300;2024-03-08T11:05:36;4.60;99.90
2767;DHT22;1391;46.74287300;11.63683300;2024-03-08T11:08:16;4.40;99.90
2767;DHT22;1391;46.74287300;11.63683300;2024-03-08T11:10:49;4.70;99.90
2767;DHT22;1391;46.74287300;11.63683300;2024-03-08T11:13:35;4.80;99.90
2767;DHT22;1391;46.74287300;11.63683300;2024-03-08T11:16:07;5.00;99.90
2767;DHT22;1391;46.74287300;11.63683300;2024-03-08T11:18:35;4.90;99.90
2767;DHT22;1391;46.74287300;11.63683300;2024-03-08T11:21:04;5.30;99.90
2767;DHT22;1391;46.74287300;11.63683300;2024-03-08T11:23:35;5.10;99.90
2767;DHT22;1391;46.74287300;11.63683300;2024-03-08T11:26:02;5.30;99.90
2767;DHT22;1391;46.74287300;11.63683300;2024-03-08T11:28:33;5.30;99.90
2767;DHT22;1391;46.74287300;11.63683300;2024-03-08T11:31:22;5.30;94.10
2767;DHT22;1391;46.74287300;11.63683300;2024-03-08T11:33:51;6.00;99.90
2767;DHT22;1391;46.74287300;11.63683300;2024-03-08T11:36:21;6.00;95.40
2767;DHT22;1391;46.74287300;11.63683300;2024-03-08T11:38:51;6.20;92.60
2767;DHT22;1391;46.74287300;11.63683300;2024-03-08T11:41:21;6.00;78.70
2767;DHT22;1391;46.74287300;11.63683300;2024-03-08T11:43:50;6.10;77.40
2767;DHT22;1391;46.74287300;11.63683300;2024-03-08T11:46:30;6.40;80.00
2767;DHT22;1391;46.74287300;11.63683300;2024-03-08T11:48:58;6.10;73.00
2767;DHT22;1391;46.74287300;11.63683300;2024-03-08T11:51:27;6.70;87.40
2767;DHT22;1391;46.74287300;11.63683300;2024-03-08T11:53:57;6.80;84.20
2767;DHT22;1391;46.74287300;11.63683300;2024-03-08T11:56:24;6.80;76.00
2767;DHT22;1391;46.74287300;11.63683300;2024-03-08T11:58:54;7.10;66.10
2767;DHT22;1391;46.74287300;11.63683300;2024-03-08T12:01:23;6.70;50.50
2767;DHT22;1391;46.74287300;11.63683300;2024-03-08T12:03:53;6.60;47.30
2767;DHT22;1391;46.74287300;11.63683300;2024-03-08T12:06:24;6.50;48.00
2767;DHT22;1391;46.74287300;11.63683300;2024-03-08T12:08:52;6.40;49.80
2767;DHT22;1391;46.74287300;11.63683300;2024-03-08T12:11:21;6.70;50.30
2767;DHT22;1391;46.74287300;11.63683300;2024-03-08T12:13:49;6.80;47.10
2767;DHT22;1391;46.74287300;11.63683300;2024-03-08T12:16:17;7.40;45.00
2767;DHT22;1391;46.74287300;11.63683300;2024-03-08T12:18:47;7.20;43.80
2767;DHT22;1391;46.74287300;11.63683300;2024-03-08T12:21:15;7.60;42.20
2767;DHT22;1391;46.74287300;11.63683300;2024-03-08T12:23:46;7.60;34.00
2767;DHT22;1391;46.74287300;11.63683300;2024-03-08T12:26:17;6.80;38.80
2767;DHT22;1391;46.74287300;11.63683300;2024-03-08T12:28:53;7.10;41.30
2767;DHT22;1391;46.74287300;11.63683300;2024-03-08T12:31:21;7.50;51.10
2767;DHT22;1391;46.74287300;11.63683300;2024-03-08T12:33:52;7.50;35.80
2767;DHT22;1391;46.74287300;11.63683300;2024-03-08T12:36:22;7.30;50.00
2767;DHT22;1391;46.74287300;11.63683300;2024-03-08T12:38:49;7.50;33.00
2767;DHT22;1391;46.74287300;11.63683300;2024-03-08T12:41:17;7.70;28.40
2767;DHT22;1391;46.74287300;11.63683300;2024-03-08T12:43:45;7.70;25.90
2767;DHT22;1391;46.74287300;11.63683300;2024-03-08T12:46:15;8.30;30.10
2767;DHT22;1391;46.74287300;11.63683300;2024-03-08T12:48:43;8.30;28.30
2767;DHT22;1391;46.74287300;11.63683300;2024-03-08T12:51:13;7.90;21.90
2767;DHT22;1391;46.74287300;11.63683300;2024-03-08T12:53:41;7.90;24.20
2767;DHT22;1391;46.74287300;11.63683300;2024-03-08T12:56:10;8.00;20.20
2767;DHT22;1391;46.74287300;11.63683300;2024-03-08T12:58:37;8.30;19.60
2767;DHT22;1391;46.74287300;11.63683300;2024-03-08T13:01:06;7.80;21.30
2767;DHT22;1391;46.74287300;11.63683300;2024-03-08T13:03:35;8.30;22.80
2767;DHT22;1391;46.74287300;11.63683300;2024-03-08T13:06:03;8.20;21.10
2767;DHT22;1391;46.74287300;11.63683300;2024-03-08T13:08:34;8.00;19.70
2767;DHT22;1391;46.74287300;11.63683300;2024-03-08T13:11:04;8.30;20.10
2767;DHT22;1391;46.74287300;11.63683300;2024-03-08T13:13:32;8.10;20.00
2767;DHT22;1391;46.74287300;11.63683300;2024-03-08T13:16:01;8.20;22.30
2767;DHT22;1391;46.74287300;11.63683300;2024-03-08T13:18:28;8.00;21.70
2767;DHT22;1391;46.74287300;11.63683300;2024-03-08T13:20:57;7.90;19.50
2767;DHT22;1391;46.74287300;11.63683300;2024-03-08T13:23:25;8.30;25.90
2767;DHT22;1391;46.74287300;11.63683300;2024-03-08T13:25:52;8.30;23.50
2767;DHT22;1391;46.74287300;11.63683300;2024-03-08T13:28:20;8.00;21.20
2767;DHT22;1391;46.74287300;11.63683300;2024-03-08T13:30:48;8.20;24.50
2767;DHT22;1391;46.74287300;11.63683300;2024-03-08T13:33:16;8.30;24.70
2767;DHT22;1391;46.74287300;11.63683300;2024-03-08T13:35:44;8.30;22.10
2767;DHT22;1391;46.74287300;11.63683300;2024-03-08T13:38:13;7.60;18.90
2767;DHT22;1391;46.74287300;11.63683300;2024-03-08T13:40:40;7.60;20.70
2767;DHT22;1391;46.74287300;11.63683300;2024-03-08T13:43:09;8.20;21.70
2767;DHT22;1391;46.74287300;11.63683300;2024-03-08T13:45:36;7.70;19.40
2767;DHT22;1391;46.74287300;11.63683300;2024-03-08T13:48:05;8.00;21.70
2767;DHT22;1391;46.74287300;11.63683300;2024-03-08T13:50:32;7.70;20.10
2767;DHT22;1391;46.74287300;11.63683300;2024-03-08T13:53:01;7.70;21.20
2767;DHT22;1391;46.74287300;11.63683300;2024-03-08T13:55:31;7.80;20.10